Time;durP1;ratioP1;P1;durP2;ratioP2;P2;SDS_P1;SDS_P2;PMS_P1;PMS_P2;Temp;Humidity;BMP_temperature;BMP_pressure;BME280_temperature;BME280_humidity;BME280_pressure;Samples;Min_cycle;Max_cycle;Signal;HPM_P1;HPM_P2
2021/10/18 00:00:22;;;;;;;10.83;6.83;;;12.40;1.00;;;;;;4925746;29;20466;-83
2021/10/18 00:02:50;;;;;;;13.03;7.47;;;12.30;1.00;;;;;;4929018;29;20450;-82
2021/10/18 00:05:19;;;;;;;13.50;6.60;;;12.30;1.00;;;;;;4912626;29;20564;-81
2021/10/18 00:07:47;;;;;;;15.77;7.27;;;12.30;1.00;;;;;;4921449;29;20474;-81
2021/10/18 00:10:16;;;;;;;16.20;7.80;;;12.20;1.00;;;;;;4915551;29;20470;-80
2021/10/18 00:12:45;;;;;;;14.63;6.90;;;12.40;1.00;;;;;;4907940;29;20488;-83
2021/10/18 00:15:16;;;;;;;13.53;7.17;;;12.30;1.00;;;;;;4928047;29;20863;-82
2021/10/18 00:17:44;;;;;;;17.07;7.70;;;12.30;1.00;;;;;;4925609;29;20502;-82
2021/10/18 00:20:15;;;;;;;19.67;9.57;;;12.50;1.00;;;;;;4917455;29;20455;-81
2021/10/18 00:22:43;;;;;;;19.27;9.40;;;12.50;1.00;;;;;;4928633;29;20453;-83
2021/10/18 00:25:12;;;;;;;12.60;7.13;;;12.50;1.00;;;;;;4934886;29;20467;-80
2021/10/18 00:27:42;;;;;;;16.37;10.67;;;12.50;1.00;;;;;;4921146;29;20450;-83
2021/10/18 00:30:11;;;;;;;16.70;8.30;;;12.60;1.00;;;;;;4915295;29;20458;-84
2021/10/18 00:32:40;;;;;;;23.73;11.20;;;12.70;1.00;;;;;;4922881;29;20984;-81
2021/10/18 00:35:09;;;;;;;17.60;9.40;;;12.70;99.90;;;;;;4922238;29;20469;-83
2021/10/18 00:37:38;;;;;;;18.67;9.60;;;12.70;99.90;;;;;;4931201;29;20944;-83
2021/10/18 00:40:07;;;;;;;16.47;8.33;;;12.70;99.90;;;;;;4921256;29;20533;-82
2021/10/18 00:42:36;;;;;;;17.43;9.80;;;12.70;99.90;;;;;;4919877;29;20458;-83
2021/10/18 00:45:08;;;;;;;17.20;9.23;;;12.70;99.90;;;;;;4935339;29;20452;-81
2021/10/18 00:47:36;;;;;;;18.00;8.43;;;12.70;99.90;;;;;;4918544;29;20489;-82
2021/10/18 00:50:06;;;;;;;13.57;8.87;;;12.70;99.90;;;;;;4923849;29;21150;-82
2021/10/18 00:52:35;;;;;;;16.40;8.30;;;12.70;99.90;;;;;;4929269;29;20471;-83
2021/10/18 00:55:05;;;;;;;14.13;7.97;;;12.70;99.90;;;;;;4933042;29;20448;-83
2021/10/18 00:57:33;;;;;;;16.47;9.43;;;12.80;99.90;;;;;;4920429;29;20451;-83
2021/10/18 01:00:02;;;;;;;13.83;8.30;;;12.80;99.90;;;;;;4919049;29;20467;-85
2021/10/18 01:02:31;;;;;;;14.00;7.83;;;12.80;99.90;;;;;;4917168;29;20459;-84
2021/10/18 01:05:00;;;;;;;11.67;7.37;;;12.90;99.90;;;;;;4901948;29;20539;-83
2021/10/18 01:07:29;;;;;;;16.60;8.53;;;12.90;99.90;;;;;;4908640;29;20466;-82
2021/10/18 01:09:57;;;;;;;15.37;8.37;;;12.90;99.90;;;;;;4918466;29;20452;-84
2021/10/18 01:12:25;;;;;;;16.50;8.67;;;12.90;99.90;;;;;;4914303;29;20444;-83
2021/10/18 01:14:53;;;;;;;16.67;8.40;;;12.90;99.90;;;;;;4919462;29;20510;-83
2021/10/18 01:17:21;;;;;;;15.80;8.20;;;12.90;99.90;;;;;;4913778;29;20459;-82
2021/10/18 01:19:51;;;;;;;14.63;9.50;;;12.90;99.90;;;;;;4922992;29;20464;-83
2021/10/18 01:22:21;;;;;;;17.30;8.07;;;12.90;99.90;;;;;;4921339;29;20462;-82
2021/10/18 01:24:49;;;;;;;13.50;8.73;;;12.90;99.90;;;;;;4916431;29;20464;-82
2021/10/18 01:27:17;;;;;;;17.60;8.77;;;12.90;99.90;;;;;;4917064;29;20461;-83
2021/10/18 01:29:46;;;;;;;15.30;8.10;;;12.90;99.90;;;;;;4917988;29;21018;-83
2021/10/18 01:32:15;;;;;;;14.63;7.83;;;12.90;99.90;;;;;;4916300;29;20471;-83
2021/10/18 01:34:43;;;;;;;13.20;7.43;;;12.90;99.90;;;;;;4919603;29;20849;-82
2021/10/18 01:37:11;;;;;;;12.63;7.63;;;12.80;99.90;;;;;;4912081;29;20490;-79
2021/10/18 01:39:41;;;;;;;14.30;7.60;;;12.80;99.90;;;;;;4916588;29;20451;-80
2021/10/18 01:42:09;;;;;;;14.20;8.53;;;12.80;99.90;;;;;;4913092;29;20462;-81
2021/10/18 01:44:37;;;;;;;17.40;6.93;;;12.80;99.90;;;;;;4908922;29;20452;-80
2021/10/18 01:47:05;;;;;;;14.10;7.20;;;12.80;99.90;;;;;;4914062;29;20980;-82
2021/10/18 01:49:34;;;;;;;13.87;6.97;;;12.80;99.90;;;;;;4914595;29;20496;-80
2021/10/18 01:52:02;;;;;;;14.80;7.93;;;12.80;99.90;;;;;;4908509;29;21261;-80
2021/10/18 01:54:30;;;;;;;8.30;6.13;;;12.80;99.90;;;;;;4914225;29;20485;-80
2021/10/18 01:56:59;;;;;;;11.70;6.60;;;12.70;99.90;;;;;;4912828;29;20494;-81
2021/10/18 01:59:29;;;;;;;13.67;6.93;;;12.70;99.90;;;;;;4904108;29;20474;-81
2021/10/18 02:01:57;;;;;;;13.60;7.73;;;12.60;99.90;;;;;;4921802;29;20469;-82
2021/10/18 02:04:25;;;;;;;14.20;7.43;;;12.50;99.90;;;;;;4916803;29;20454;-83
2021/10/18 02:06:53;;;;;;;14.00;7.50;;;12.50;99.90;;;;;;4915631;29;20484;-83
2021/10/18 02:09:21;;;;;;;15.73;7.27;;;12.70;99.90;;;;;;4918884;29;20450;-82
2021/10/18 02:11:49;;;;;;;13.77;7.20;;;12.60;99.90;;;;;;4917233;29;20973;-82
2021/10/18 02:14:19;;;;;;;16.10;8.77;;;12.40;99.90;;;;;;4917625;29;20587;-82
2021/10/18 02:16:47;;;;;;;13.57;6.97;;;12.40;99.90;;;;;;4906381;29;20493;-81
2021/10/18 02:19:16;;;;;;;17.23;8.63;;;12.40;99.90;;;;;;4920413;29;20463;-82
2021/10/18 02:21:44;;;;;;;13.33;7.70;;;12.40;99.90;;;;;;4920069;29;20450;-82
2021/10/18 02:24:12;;;;;;;15.13;6.87;;;12.40;99.90;;;;;;4928312;29;20469;-81
2021/10/18 02:26:40;;;;;;;15.90;8.50;;;12.40;99.90;;;;;;4921325;29;20481;-84
2021/10/18 02:29:09;;;;;;;15.03;6.87;;;12.30;99.90;;;;;;4931170;29;20450;-81
2021/10/18 02:31:39;;;;;;;15.10;7.00;;;12.20;99.90;;;;;;4939604;29;20478;-82
2021/10/18 02:34:07;;;;;;;13.23;6.20;;;12.30;99.90;;;;;;4908549;29;20598;-82
2021/10/18 02:36:36;;;;;;;12.10;6.80;;;12.40;99.90;;;;;;4916740;29;20490;-82
2021/10/18 02:39:04;;;;;;;8.93;5.93;;;12.40;99.90;;;;;;4920394;29;20455;-80
2021/10/18 02:41:32;;;;;;;15.30;7.40;;;12.40;99.90;;;;;;4921068;29;20471;-83
2021/10/18 02:44:01;;;;;;;15.77;7.10;;;12.30;99.90;;;;;;4916214;29;20454;-82
2021/10/18 02:46:29;;;;;;;18.47;8.70;;;12.30;99.90;;;;;;4919857;29;20842;-83
2021/10/18 02:48:59;;;;;;;16.33;7.60;;;12.30;99.90;;;;;;4922939;29;20465;-82
2021/10/18 02:51:27;;;;;;;14.00;6.47;;;12.40;99.90;;;;;;4925768;29;20458;-81
2021/10/18 02:53:55;;;;;;;17.07;7.60;;;12.40;99.90;;;;;;4916042;29;20484;-83
2021/10/18 02:56:23;;;;;;;12.80;8.10;;;12.40;99.90;;;;;;4919501;29;20484;-81
2021/10/18 02:58:51;;;;;;;12.90;7.80;;;12.30;99.90;;;;;;4931444;29;21110;-83
2021/10/18 03:01:19;;;;;;;10.93;6.40;;;12.30;99.90;;;;;;4912840;29;20486;-83
2021/10/18 03:03:48;;;;;;;13.80;7.60;;;12.40;99.90;;;;;;4915060;29;20513;-83
2021/10/18 03:06:17;;;;;;;16.17;8.90;;;12.40;99.90;;;;;;4918080;29;20478;-83
2021/10/18 03:08:45;;;;;;;11.07;7.80;;;12.40;99.90;;;;;;4916230;29;20458;-83
2021/10/18 03:11:14;;;;;;;14.07;7.40;;;12.30;99.90;;;;;;4907476;29;20506;-82
2021/10/18 03:13:42;;;;;;;13.43;7.20;;;12.20;99.90;;;;;;4915753;29;20473;-82
2021/10/18 03:16:10;;;;;;;17.07;8.17;;;12.20;99.90;;;;;;4923425;29;20477;-81
2021/10/18 03:18:38;;;;;;;13.77;7.50;;;12.20;99.90;;;;;;4918448;29;20473;-82
2021/10/18 03:21:07;;;;;;;12.47;7.47;;;12.30;99.90;;;;;;4924790;29;20454;-83
2021/10/18 03:23:36;;;;;;;13.13;7.03;;;12.30;99.90;;;;;;4921551;29;20458;-82
2021/10/18 03:26:05;;;;;;;13.63;7.17;;;12.20;99.90;;;;;;4929839;29;20484;-81
2021/10/18 03:28:33;;;;;;;14.70;7.93;;;12.30;99.90;;;;;;4918356;29;20572;-82
2021/10/18 03:31:01;;;;;;;13.83;7.13;;;12.30;99.90;;;;;;4913498;29;20521;-83
2021/10/18 03:33:31;;;;;;;15.43;8.40;;;12.30;99.90;;;;;;4917807;29;20468;-83
2021/10/18 03:35:59;;;;;;;18.13;7.70;;;12.40;99.90;;;;;;4918576;29;20479;-83
2021/10/18 03:38:27;;;;;;;16.70;8.50;;;12.50;99.90;;;;;;4916626;29;20458;-82
2021/10/18 03:40:57;;;;;;;12.07;6.80;;;12.50;99.90;;;;;;4920792;29;20457;-84
2021/10/18 03:43:25;;;;;;;16.97;8.10;;;12.50;99.90;;;;;;4915660;29;20488;-82
2021/10/18 03:45:54;;;;;;;15.60;7.50;;;12.50;99.90;;;;;;4918799;29;20491;-81
2021/10/18 03:48:22;;;;;;;16.30;8.10;;;12.40;99.90;;;;;;4922347;29;20541;-83
2021/10/18 03:50:50;;;;;;;18.13;6.83;;;12.30;99.90;;;;;;4922855;29;20442;-81
2021/10/18 03:53:20;;;;;;;15.03;9.03;;;12.30;99.90;;;;;;4919509;29;20480;-82
2021/10/18 03:55:48;;;;;;;11.20;7.90;;;12.20;99.90;;;;;;4918590;29;20501;-80
2021/10/18 03:58:18;;;;;;;12.70;7.53;;;12.00;99.90;;;;;;4919045;29;20463;-83
2021/10/18 04:00:46;;;;;;;17.10;8.40;;;12.10;99.90;;;;;;4925522;29;20458;-82
2021/10/18 04:03:14;;;;;;;14.20;8.80;;;12.10;99.90;;;;;;4931749;29;20454;-85
2021/10/18 04:05:43;;;;;;;12.17;7.97;;;12.20;99.90;;;;;;4932035;29;20473;-85
2021/10/18 04:08:11;;;;;;;15.63;7.90;;;12.20;1.00;;;;;;4930381;29;20486;-85
2021/10/18 04:10:39;;;;;;;13.20;7.63;;;12.20;99.90;;;;;;4928764;29;20485;-83
2021/10/18 04:13:08;;;;;;;17.97;8.40;;;12.30;99.90;;;;;;4928943;29;20490;-85
2021/10/18 04:15:37;;;;;;;14.33;7.83;;;12.20;99.90;;;;;;4930501;29;20490;-81
2021/10/18 04:18:05;;;;;;;15.23;8.87;;;12.10;99.90;;;;;;4929933;29;20469;-82
2021/10/18 04:20:35;;;;;;;18.30;7.67;;;12.10;99.90;;;;;;4931008;29;20974;-82
2021/10/18 04:23:03;;;;;;;12.00;7.83;;;12.20;99.90;;;;;;4924253;29;20512;-83
2021/10/18 04:25:31;;;;;;;15.33;7.73;;;12.20;99.90;;;;;;4924056;29;21137;-82
2021/10/18 04:28:00;;;;;;;12.00;7.60;;;12.10;99.90;;;;;;4920049;29;20466;-83
2021/10/18 04:30:28;;;;;;;15.37;8.73;;;11.90;1.00;;;;;;4917105;29;20511;-81
2021/10/18 04:32:57;;;;;;;15.70;9.03;;;11.90;1.00;;;;;;4911695;29;20494;-74
2021/10/18 04:35:26;;;;;;;14.00;6.83;;;11.70;1.00;;;;;;4914899;29;20496;-79
2021/10/18 04:37:54;;;;;;;13.20;7.40;;;11.80;1.00;;;;;;4928792;29;20466;-82
2021/10/18 04:40:22;;;;;;;16.02;9.13;;;11.60;1.00;;;;;;4924338;29;20460;-82
2021/10/18 04:42:50;;;;;;;14.40;8.00;;;11.60;1.00;;;;;;4909149;29;20202;-83
2021/10/18 04:45:19;;;;;;;16.70;10.43;;;11.60;1.00;;;;;;4916132;29;21438;-83
2021/10/18 04:47:50;;;;;;;13.87;7.17;;;11.80;1.00;;;;;;4913433;29;20461;-81
2021/10/18 04:50:21;;;;;;;13.73;7.27;;;11.80;1.00;;;;;;4912750;29;20456;-83
2021/10/18 04:52:50;;;;;;;10.50;6.67;;;11.70;1.00;;;;;;4914917;29;20463;-84
2021/10/18 04:55:19;;;;;;;14.23;7.70;;;11.60;1.00;;;;;;4909371;29;20917;-83
2021/10/18 04:57:52;;;;;;;17.67;8.60;;;11.60;1.00;;;;;;4911662;29;20564;-81
2021/10/18 05:00:20;;;;;;;14.50;7.90;;;11.60;1.00;;;;;;4920505;29;20450;-81
2021/10/18 05:02:49;;;;;;;16.90;9.20;;;11.70;1.00;;;;;;4915594;29;20450;-80
2021/10/18 05:05:19;;;;;;;18.03;10.07;;;11.50;1.00;;;;;;4913184;29;21037;-80
2021/10/18 05:07:59;;;;;;;12.97;7.50;;;11.40;1.00;;;;;;4912841;29;20474;-82
2021/10/18 05:10:28;;;;;;;17.17;9.00;;;11.60;1.00;;;;;;4911893;29;20461;-82
2021/10/18 05:12:56;;;;;;;12.73;7.27;;;11.70;1.00;;;;;;4909518;29;20454;-83
2021/10/18 05:15:24;;;;;;;13.43;8.00;;;11.80;1.00;;;;;;4924196;29;20486;-81
2021/10/18 05:17:53;;;;;;;14.80;7.73;;;11.90;1.00;;;;;;4914253;29;20460;-82
2021/10/18 05:20:22;;;;;;;20.73;9.67;;;11.80;1.00;;;;;;4907402;29;20468;-82
2021/10/18 05:22:51;;;;;;;17.13;8.67;;;11.80;1.00;;;;;;4913933;29;20469;-82
2021/10/18 05:25:19;;;;;;;15.50;8.60;;;11.80;1.00;;;;;;4910673;29;20477;-81
2021/10/18 05:27:47;;;;;;;12.20;6.80;;;11.80;1.00;;;;;;4909282;29;20469;-82
2021/10/18 05:30:19;;;;;;;14.90;8.37;;;11.80;1.00;;;;;;4908429;29;20820;-82
2021/10/18 05:32:47;;;;;;;14.73;8.10;;;11.80;1.00;;;;;;4911381;29;20489;-83
2021/10/18 05:35:16;;;;;;;13.17;7.67;;;11.80;1.00;;;;;;4911059;29;21048;-82
2021/10/18 05:37:47;;;;;;;11.70;7.80;;;11.90;1.00;;;;;;4908234;29;20459;-82
2021/10/18 05:40:17;;;;;;;11.57;8.50;;;11.90;1.00;;;;;;4908850;29;20854;-82
2021/10/18 05:42:45;;;;;;;13.00;6.83;;;11.80;1.00;;;;;;4909524;29;20466;-82
2021/10/18 05:45:13;;;;;;;15.70;7.63;;;11.80;1.00;;;;;;4912439;29;20497;-83
2021/10/18 05:47:56;;;;;;;13.47;8.17;;;11.90;1.00;;;;;;4910562;29;20987;-82
2021/10/18 05:50:27;;;;;;;11.43;7.00;;;12.00;1.00;;;;;;4909822;29;20811;-82
2021/10/18 05:52:57;;;;;;;10.67;7.30;;;12.00;1.00;;;;;;4920478;29;20471;-82
2021/10/18 05:55:25;;;;;;;11.37;6.40;;;11.90;1.00;;;;;;4910488;29;20493;-82
2021/10/18 05:57:54;;;;;;;16.47;8.07;;;11.70;1.00;;;;;;4911280;29;20481;-83
2021/10/18 06:00:24;;;;;;;14.27;7.30;;;11.70;1.00;;;;;;4912516;29;20470;-83
2021/10/18 06:02:52;;;;;;;12.03;6.83;;;11.80;1.00;;;;;;4912585;29;20909;-81
2021/10/18 06:05:23;;;;;;;16.23;7.70;;;11.70;1.00;;;;;;4912394;29;20481;-82
2021/10/18 06:07:52;;;;;;;12.57;7.80;;;11.70;1.00;;;;;;4915379;29;20454;-84
2021/10/18 06:10:21;;;;;;;16.27;8.00;;;11.80;1.00;;;;;;4904329;29;20461;-83
2021/10/18 06:12:50;;;;;;;15.40;6.87;;;11.90;1.00;;;;;;4914278;29;20482;-83
2021/10/18 06:15:20;;;;;;;12.90;7.30;;;11.80;1.00;;;;;;4907020;29;20489;-82
2021/10/18 06:17:48;;;;;;;13.27;7.57;;;11.60;1.00;;;;;;4910210;29;20458;-83
2021/10/18 06:20:19;;;;;;;12.03;7.27;;;11.50;1.00;;;;;;4913744;29;20469;-84
2021/10/18 06:22:49;;;;;;;17.70;8.30;;;11.50;1.00;;;;;;4913088;29;20994;-84
2021/10/18 06:25:17;;;;;;;12.93;7.07;;;11.50;1.00;;;;;;4912161;29;20482;-82
2021/10/18 06:27:47;;;;;;;15.35;9.80;;;11.50;1.00;;;;;;4924599;29;20470;-81
2021/10/18 06:30:15;;;;;;;14.63;8.63;;;11.60;1.00;;;;;;4910471;29;20205;-81
2021/10/18 06:32:43;;;;;;;10.93;7.37;;;11.50;1.00;;;;;;4905331;29;20459;-81
2021/10/18 06:35:12;;;;;;;14.53;7.87;;;11.40;1.00;;;;;;4910334;29;20818;-81
2021/10/18 06:37:40;;;;;;;13.77;6.40;;;11.50;1.00;;;;;;4913648;29;20518;-81
2021/10/18 06:40:10;;;;;;;14.30;7.10;;;11.50;1.00;;;;;;4909914;29;20475;-80
2021/10/18 06:42:39;;;;;;;15.33;8.00;;;11.40;1.00;;;;;;4910782;29;20468;-80
2021/10/18 06:45:10;;;;;;;11.03;6.63;;;11.60;1.00;;;;;;4909501;29;21049;-82
2021/10/18 06:47:39;;;;;;;16.10;7.80;;;11.40;1.00;;;;;;4929443;29;20455;-81
2021/10/18 06:50:08;;;;;;;13.63;7.90;;;11.40;99.90;;;;;;4909084;29;20469;-81
2021/10/18 06:52:39;;;;;;;9.23;6.30;;;11.30;1.40;;;;;;4933925;28;20458;-80
2021/10/18 06:55:10;;;;;;;15.10;8.40;;;11.40;8.80;;;;;;4912845;29;20470;-81
2021/10/18 06:57:39;;;;;;;11.13;7.40;;;11.60;1.00;;;;;;4915727;29;20470;-81
2021/10/18 07:00:10;;;;;;;11.70;6.60;;;11.70;1.00;;;;;;4912586;29;20471;-81
2021/10/18 07:02:38;;;;;;;12.03;6.77;;;11.70;1.00;;;;;;4913838;29;20472;-80
2021/10/18 07:05:07;;;;;;;15.60;8.57;;;11.80;1.00;;;;;;4929564;29;20472;-81
2021/10/18 07:07:37;;;;;;;16.43;7.37;;;11.90;1.00;;;;;;4916658;29;21014;-81
2021/10/18 07:10:06;;;;;;;16.67;9.20;;;12.00;1.00;;;;;;4916274;29;20526;-81
2021/10/18 07:12:36;;;;;;;13.13;7.07;;;12.10;1.00;;;;;;4916262;29;20453;-81
2021/10/18 07:15:07;;;;;;;17.77;7.87;;;12.10;1.00;;;;;;4910550;29;20470;-83
2021/10/18 07:17:37;;;;;;;11.37;6.97;;;12.00;1.00;;;;;;4915241;29;20870;-82
2021/10/18 07:20:07;;;;;;;12.70;6.70;;;11.80;1.00;;;;;;4912498;29;20459;-81
2021/10/18 07:22:42;;;;;;;13.30;7.03;;;11.90;1.00;;;;;;4910567;29;20460;-81
2021/10/18 07:25:11;;;;;;;12.47;6.40;;;11.80;1.00;;;;;;4910784;29;20873;-82
2021/10/18 07:27:39;;;;;;;13.77;7.83;;;11.80;1.00;;;;;;4914483;29;20462;-82
2021/10/18 07:30:09;;;;;;;11.63;6.90;;;11.90;1.00;;;;;;4911498;29;20537;-82
2021/10/18 07:32:42;;;;;;;15.80;8.37;;;11.90;1.00;;;;;;4903403;29;20463;-81
2021/10/18 07:35:12;;;;;;;11.27;6.53;;;11.60;1.00;;;;;;4904254;29;20468;-81
2021/10/18 07:37:43;;;;;;;15.30;7.47;;;11.40;1.00;;;;;;4909705;29;20493;-81
2021/10/18 07:40:13;;;;;;;15.80;6.83;;;11.40;13.00;;;;;;4915537;29;20556;-80
2021/10/18 07:42:42;;;;;;;15.17;7.23;;;11.50;1.00;;;;;;4911277;29;20465;-81
2021/10/18 07:45:11;;;;;;;13.03;7.93;;;11.60;1.00;;;;;;4912557;29;20851;-80
2021/10/18 07:47:43;;;;;;;14.17;7.50;;;11.60;1.00;;;;;;4912783;29;20455;-82
2021/10/18 07:50:12;;;;;;;18.40;8.03;;;11.40;4.30;;;;;;4912868;29;20470;-81
2021/10/18 07:52:41;;;;;;;13.93;7.20;;;11.50;36.00;;;;;;4914300;29;20478;-82
2021/10/18 07:55:14;;;;;;;18.23;7.60;;;11.60;1.00;;;;;;4909640;29;20886;-82
2021/10/18 07:57:43;;;;;;;14.63;6.67;;;11.50;1.00;;;;;;4911117;29;20530;-82
2021/10/18 08:00:13;;;;;;;14.17;8.50;;;11.30;99.90;;;;;;4907778;29;20458;-80
2021/10/18 08:02:43;;;;;;;15.77;6.97;;;11.30;99.90;;;;;;4915108;29;20439;-80
2021/10/18 08:05:16;;;;;;;15.53;6.47;;;11.20;99.90;;;;;;4913737;29;20545;-80
2021/10/18 08:07:46;;;;;;;13.73;7.60;;;11.30;99.90;;;;;;4912619;29;20966;-80
2021/10/18 08:10:17;;;;;;;14.30;8.03;;;11.40;99.90;;;;;;4914235;29;20463;-80
2021/10/18 08:12:45;;;;;;;14.57;8.07;;;11.30;99.90;;;;;;4911540;29;21061;-79
2021/10/18 08:15:13;;;;;;;13.23;7.43;;;11.40;99.90;;;;;;4912050;29;20474;-82
2021/10/18 08:17:43;;;;;;;18.03;7.27;;;11.40;99.90;;;;;;4915404;29;20474;-81
2021/10/18 08:20:11;;;;;;;11.93;6.53;;;11.30;99.90;;;;;;4913062;29;20463;-81
2021/10/18 08:22:40;;;;;;;12.70;7.60;;;11.10;99.90;;;;;;4910051;29;20972;-80
2021/10/18 08:25:09;;;;;;;15.07;7.30;;;11.00;1.00;;;;;;4909328;29;20458;-81
2021/10/18 08:27:38;;;;;;;11.10;7.60;;;11.20;1.00;;;;;;4906032;29;20472;-83
2021/10/18 08:30:07;;;;;;;16.83;8.77;;;11.30;99.90;;;;;;4911029;29;20456;-81
2021/10/18 08:32:36;;;;;;;15.03;8.10;;;11.30;99.90;;;;;;4914830;29;21163;-80
2021/10/18 08:35:07;;;;;;;9.77;5.43;;;11.20;1.00;;;;;;4912638;29;22195;-81
2021/10/18 08:40:22;;;;;;;15.70;8.03;;;11.50;99.90;;;;;;4913870;29;20458;-81
2021/10/18 08:42:57;;;;;;;15.00;7.63;;;11.30;1.00;;;;;;4913955;29;20995;-81
2021/10/18 08:45:26;;;;;;;15.37;9.53;;;11.50;99.90;;;;;;4912128;29;20493;-82
2021/10/18 08:47:56;;;;;;;18.13;8.77;;;11.70;99.90;;;;;;4905940;29;21283;-81
2021/10/18 08:50:26;;;;;;;16.57;7.80;;;11.80;99.90;;;;;;4910279;29;20453;-81
2021/10/18 08:52:54;;;;;;;19.07;10.00;;;11.90;79.70;;;;;;4910556;29;20473;-81
2021/10/18 08:55:23;;;;;;;17.00;9.20;;;11.90;1.00;;;;;;4914330;29;21006;-80
2021/10/18 08:57:51;;;;;;;16.10;9.10;;;12.00;1.00;;;;;;4913548;29;20561;-80
2021/10/18 09:00:43;;;;;;;17.30;8.63;;;12.00;1.00;;;;;;4912651;29;20472;-81
2021/10/18 09:03:16;;;;;;;18.47;8.77;;;12.00;1.00;;;;;;4908072;29;20529;-80
2021/10/18 09:05:46;;;;;;;14.60;8.20;;;11.80;27.10;;;;;;4904755;29;20486;-82
2021/10/18 09:08:37;;;;;;;22.87;8.90;;;11.90;20.40;;;;;;4910276;29;20466;-82
2021/10/18 09:11:08;;;;;;;17.73;7.77;;;12.00;16.20;;;;;;4903642;29;20837;-80
2021/10/18 09:13:38;;;;;;;16.30;8.47;;;12.00;1.00;;;;;;4912640;29;20462;-83
2021/10/18 09:16:09;;;;;;;20.67;7.57;;;12.10;1.00;;;;;;4911602;29;20576;-82
2021/10/18 09:18:37;;;;;;;16.40;8.23;;;12.10;1.00;;;;;;4915522;29;20474;-82
2021/10/18 09:21:08;;;;;;;16.73;9.10;;;12.10;1.00;;;;;;4913026;29;20500;-81
2021/10/18 09:23:40;;;;;;;15.83;8.90;;;11.90;46.30;;;;;;4907543;29;20888;-82
2021/10/18 09:26:12;;;;;;;14.70;7.90;;;12.00;52.00;;;;;;4913737;29;20489;-83
2021/10/18 09:28:41;;;;;;;16.07;8.20;;;12.10;1.00;;;;;;4909456;29;20460;-82
2021/10/18 09:31:17;;;;;;;15.10;7.60;;;12.20;1.00;;;;;;4913717;29;20501;-83
2021/10/18 09:33:48;;;;;;;20.27;9.00;;;12.30;1.00;;;;;;4911193;29;20449;-81
2021/10/18 09:36:23;;;;;;;15.80;7.63;;;12.40;1.00;;;;;;4912821;29;20487;-81
2021/10/18 09:39:07;;;;;;;16.17;8.27;;;12.40;1.00;;;;;;4903128;29;20479;-81
2021/10/18 09:41:35;;;;;;;18.20;8.37;;;12.30;1.00;;;;;;4913784;29;20769;-80
2021/10/18 09:44:11;;;;;;;16.77;8.87;;;12.30;1.00;;;;;;4907451;29;20491;-82
2021/10/18 09:47:03;;;;;;;18.73;9.40;;;12.30;1.00;;;;;;4913151;29;20478;-81
2021/10/18 10:52:57;;;;;;;15.30;8.67;;;12.90;1.00;;;;;;4914109;29;20482;-81
2021/10/18 10:55:27;;;;;;;13.30;7.13;;;12.90;1.00;;;;;;4919676;29;20475;-79
2021/10/18 10:57:59;;;;;;;17.23;7.80;;;13.20;1.00;;;;;;4914391;29;20486;-79
2021/10/18 11:00:37;;;;;;;11.17;8.27;;;13.50;1.00;;;;;;4916673;29;20580;-78
2021/10/18 11:03:40;;;;;;;10.23;6.53;;;13.70;1.00;;;;;;4916337;29;20972;-79
2021/10/18 11:06:13;;;;;;;11.00;7.50;;;14.10;99.90;;;;;;4915843;29;20488;-80
2021/10/18 11:08:44;;;;;;;10.97;6.53;;;14.30;99.90;;;;;;4918111;29;20452;-82
2021/10/18 11:11:15;;;;;;;12.30;7.37;;;14.40;99.90;;;;;;4909940;29;20468;-80
2021/10/18 11:13:47;;;;;;;11.80;6.83;;;14.40;99.90;;;;;;4918998;29;20802;-79
2021/10/18 11:16:16;;;;;;;13.40;6.87;;;14.30;99.90;;;;;;4911886;29;20483;-81
2021/10/18 11:18:48;;;;;;;14.30;6.50;;;14.40;99.90;;;;;;4930021;29;21100;-76
2021/10/18 11:21:20;;;;;;;10.10;7.80;;;14.50;99.90;;;;;;4917846;29;20989;-76
2021/10/18 11:24:04;;;;;;;12.27;6.90;;;14.60;99.90;;;;;;4916928;29;20563;-77
2021/10/18 11:26:36;;;;;;;12.67;7.30;;;14.70;99.90;;;;;;4930104;29;20600;-78
2021/10/18 11:29:07;;;;;;;10.30;6.27;;;14.80;99.90;;;;;;4912561;29;20517;-77
2021/10/18 11:31:37;;;;;;;11.50;6.97;;;14.90;99.90;;;;;;4913325;29;20891;-77
2021/10/18 11:34:09;;;;;;;13.83;6.63;;;15.00;99.90;;;;;;4911308;29;20541;-75
2021/10/18 11:36:40;;;;;;;12.40;7.80;;;15.10;99.90;;;;;;4911439;29;20530;-77
2021/10/18 11:39:14;;;;;;;13.83;6.97;;;15.20;99.90;;;;;;4916928;29;20497;-76
2021/10/18 11:42:14;;;;;;;13.63;6.00;;;15.40;99.90;;;;;;4915795;29;20527;-76
2021/10/18 11:44:47;;;;;;;11.70;6.70;;;15.40;99.90;;;;;;4873604;29;20530;-75
2021/10/18 11:47:34;;;;;;;7.37;5.67;;;15.50;99.90;;;;;;4909212;29;20494;-78
2021/10/18 11:50:16;;;;;;;9.97;5.13;;;15.60;99.90;;;;;;4914990;29;20545;-77
2021/10/18 11:52:47;;;;;;;10.13;5.70;;;15.70;99.90;;;;;;4912552;29;20485;-76
2021/10/18 11:55:17;;;;;;;7.90;4.83;;;15.80;99.90;;;;;;4914785;29;20482;-77
2021/10/18 11:57:48;;;;;;;10.63;6.30;;;15.90;99.90;;;;;;4913103;29;20492;-79
2021/10/18 12:00:23;;;;;;;9.77;5.80;;;16.00;99.90;;;;;;4915978;29;20483;-77
2021/10/18 12:02:53;;;;;;;11.02;5.78;;;16.00;99.90;;;;;;4914365;29;20831;-78
2021/10/18 12:05:23;;;;;;;7.90;5.50;;;16.10;99.90;;;;;;4907759;29;20225;-76
2021/10/18 12:07:52;;;;;;;9.60;7.17;;;16.10;99.90;;;;;;4916684;29;20460;-77
2021/10/18 12:10:26;;;;;;;12.83;5.87;;;16.20;99.90;;;;;;4915802;29;20825;-78
2021/10/18 12:13:23;;;;;;;7.53;4.70;;;16.20;99.90;;;;;;4912796;29;20480;-78
2021/10/18 12:16:08;;;;;;;5.73;5.10;;;16.30;99.90;;;;;;4908060;29;20481;-76
2021/10/18 12:18:39;;;;;;;9.93;6.10;;;16.30;99.90;;;;;;4912807;29;20471;-76
2021/10/18 12:21:09;;;;;;;9.10;6.10;;;16.30;99.90;;;;;;4910171;29;20282;-82
2021/10/18 12:23:47;;;;;;;9.30;5.33;;;16.40;99.90;;;;;;4912067;29;20450;-84
2021/10/18 12:26:18;;;;;;;9.10;5.20;;;16.30;99.90;;;;;;4917101;29;20475;-82
2021/10/18 12:28:49;;;;;;;4.97;4.30;;;16.40;99.90;;;;;;4914588;29;20460;-84
2021/10/18 12:31:38;;;;;;;7.80;5.73;;;16.50;99.90;;;;;;4914339;29;20473;-84
2021/10/18 12:34:16;;;;;;;8.50;5.10;;;16.60;99.90;;;;;;4914297;29;20971;-82
2021/10/18 12:37:01;;;;;;;5.83;4.73;;;16.40;99.90;;;;;;4911469;29;20490;-83
2021/10/18 12:39:42;;;;;;;7.07;4.03;;;16.50;99.90;;;;;;4909448;29;20498;-83
2021/10/18 12:42:12;;;;;;;4.60;4.20;;;16.50;99.90;;;;;;4928687;29;20459;-83
2021/10/18 12:44:42;;;;;;;6.10;3.47;;;16.30;99.90;;;;;;4912198;29;20461;-84
2021/10/18 12:47:14;;;;;;;4.37;3.00;;;16.40;99.90;;;;;;4916448;29;20486;-83
2021/10/18 12:49:43;;;;;;;7.00;4.40;;;16.50;99.90;;;;;;4913692;29;20970;-83
2021/10/18 12:52:12;;;;;;;5.20;4.00;;;16.60;99.90;;;;;;4915313;29;20459;-83
2021/10/18 12:54:44;;;;;;;4.97;3.13;;;16.70;99.90;;;;;;4917661;29;20467;-82
2021/10/18 12:57:14;;;;;;;4.70;2.93;;;16.70;99.90;;;;;;4914452;29;21111;-82
2021/10/18 13:00:09;;;;;;;3.50;2.93;;;16.80;99.90;;;;;;4914794;29;20886;-83
2021/10/18 13:02:39;;;;;;;4.73;3.53;;;16.90;99.90;;;;;;4912332;29;20453;-83
2021/10/18 13:05:19;;;;;;;4.77;2.37;;;16.90;99.90;;;;;;4913917;29;20479;-84
2021/10/18 13:07:58;;;;;;;3.90;2.57;;;17.00;99.90;;;;;;4915487;29;20475;-84
2021/10/18 13:10:30;;;;;;;5.83;3.60;;;17.00;99.90;;;;;;4929086;29;21041;-84
2021/10/18 13:12:59;;;;;;;6.15;3.35;;;17.00;99.90;;;;;;4914161;29;20470;-83
2021/10/18 13:15:28;;;;;;;4.20;3.00;;;17.10;99.90;;;;;;4929120;29;20233;-83
2021/10/18 13:17:58;;;;;;;5.50;3.50;;;17.10;99.90;;;;;;4917103;29;20467;-82
2021/10/18 13:20:27;;;;;;;4.60;3.63;;;17.10;99.90;;;;;;4910320;29;20632;-83
2021/10/18 13:22:58;;;;;;;4.73;2.70;;;17.10;99.90;;;;;;4915785;29;21017;-85
2021/10/18 13:25:30;;;;;;;4.33;3.47;;;17.10;99.90;;;;;;4915552;29;20485;-84
2021/10/18 13:28:01;;;;;;;4.60;3.50;;;17.10;99.90;;;;;;4922074;29;20806;-82
2021/10/18 13:30:30;;;;;;;4.03;3.43;;;17.10;99.90;;;;;;4928451;29;20453;-83
2021/10/18 13:33:01;;;;;;;5.73;3.40;;;17.00;99.90;;;;;;4913320;29;20468;-83
2021/10/18 13:35:30;;;;;;;3.40;3.10;;;17.00;99.90;;;;;;4912545;29;20487;-83
2021/10/18 13:37:59;;;;;;;5.00;3.27;;;17.00;99.90;;;;;;4911052;29;20463;-84
2021/10/18 13:40:29;;;;;;;3.17;2.83;;;16.90;99.90;;;;;;4913784;29;21334;-83
2021/10/18 13:42:57;;;;;;;5.00;3.50;;;16.90;99.90;;;;;;4905851;29;20855;-83
2021/10/18 13:45:25;;;;;;;3.63;3.27;;;17.00;99.90;;;;;;4912814;29;22592;-83
2021/10/18 13:47:54;;;;;;;4.97;3.20;;;16.90;99.90;;;;;;4913441;29;20486;-82
2021/10/18 13:50:23;;;;;;;6.10;3.43;;;16.90;99.90;;;;;;4915279;29;20538;-83
2021/10/18 13:52:56;;;;;;;4.50;3.43;;;16.90;99.90;;;;;;4908655;29;21040;-84
2021/10/18 13:55:26;;;;;;;5.50;3.07;;;16.90;99.90;;;;;;4905708;29;20497;-84
2021/10/18 13:57:56;;;;;;;3.00;2.37;;;16.90;99.90;;;;;;4914753;29;20474;-84
2021/10/18 14:00:25;;;;;;;3.97;2.80;;;17.00;99.90;;;;;;4908314;29;20499;-82
2021/10/18 14:02:54;;;;;;;3.53;2.97;;;17.10;99.90;;;;;;4909800;29;20475;-83
2021/10/18 14:05:23;;;;;;;2.83;2.40;;;17.20;99.90;;;;;;4908518;29;20473;-83